Time;durP1;ratioP1;P1;durP2;ratioP2;P2;SDS_P1;SDS_P2;PMS_P1;PMS_P2;Temp;Humidity;BMP_temperature;BMP_pressure;BME280_temperature;BME280_humidity;BME280_pressure;Samples;Min_cycle;Max_cycle;Signal;HPM_P1;HPM_P2
2022/07/19 00:01:42;;;;;;;5.25;3.38;;;17.40;99.90;;;;;;6267433;22;20016;-80
2022/07/19 00:04:08;;;;;;;5.10;3.15;;;17.30;99.90;;;;;;6265850;22;20016;-80
2022/07/19 00:06:34;;;;;;;9.75;3.63;;;17.20;99.90;;;;;;6242763;22;20561;-80
2022/07/19 00:09:00;;;;;;;6.82;3.40;;;17.20;99.90;;;;;;6267013;22;20019;-80
2022/07/19 00:11:25;;;;;;;5.25;3.17;;;17.10;99.90;;;;;;6267275;22;20116;-80
2022/07/19 00:13:51;;;;;;;3.17;2.88;;;17.10;99.90;;;;;;6268236;22;20015;-79
2022/07/19 00:16:17;;;;;;;8.50;3.80;;;17.10;99.90;;;;;;6241221;22;20645;-79
2022/07/19 00:18:43;;;;;;;4.45;3.03;;;17.00;99.90;;;;;;6242919;22;20023;-79
2022/07/19 00:21:09;;;;;;;4.80;2.92;;;17.00;99.90;;;;;;6240205;22;20028;-79
2022/07/19 00:23:34;;;;;;;6.15;3.17;;;16.90;99.90;;;;;;6242895;22;20054;-79
2022/07/19 00:26:02;;;;;;;4.63;2.75;;;16.90;99.90;;;;;;6266452;22;20022;-79
2022/07/19 00:28:28;;;;;;;3.58;3.03;;;16.90;99.90;;;;;;6242566;22;20015;-80
2022/07/19 00:30:54;;;;;;;4.60;3.17;;;16.90;99.90;;;;;;6241412;22;20012;-80
2022/07/19 00:33:19;;;;;;;6.80;3.33;;;16.90;99.90;;;;;;6267056;22;20069;-80
2022/07/19 00:35:45;;;;;;;6.20;3.30;;;16.90;99.90;;;;;;6268236;22;20023;-79
2022/07/19 00:38:14;;;;;;;5.55;3.08;;;16.90;99.90;;;;;;6240771;22;20054;-80
2022/07/19 00:40:41;;;;;;;6.37;3.27;;;16.80;99.90;;;;;;6268319;22;20019;-79
2022/07/19 00:43:07;;;;;;;4.40;3.50;;;16.80;99.90;;;;;;6266828;22;20046;-79
2022/07/19 00:45:33;;;;;;;5.80;3.65;;;16.80;99.90;;;;;;6267768;22;20351;-79
2022/07/19 00:47:59;;;;;;;4.68;3.30;;;16.70;99.90;;;;;;6241574;22;20020;-79
2022/07/19 00:50:25;;;;;;;3.88;3.55;;;16.70;99.90;;;;;;6241688;22;20027;-79
2022/07/19 00:53:04;;;;;;;4.45;3.60;;;16.70;99.90;;;;;;6267547;22;20026;-78
2022/07/19 00:55:32;;;;;;;5.70;3.83;;;16.60;99.90;;;;;;6240418;22;20020;-79
2022/07/19 00:57:59;;;;;;;5.90;3.28;;;16.60;99.90;;;;;;6267792;22;20016;-79
2022/07/19 01:00:26;;;;;;;4.13;3.28;;;16.60;99.90;;;;;;6265904;22;20016;-79
2022/07/19 01:02:52;;;;;;;7.50;3.67;;;16.60;99.90;;;;;;6242875;22;20027;-79
2022/07/19 01:05:18;;;;;;;5.30;3.40;;;16.50;99.90;;;;;;6265947;22;20027;-79
2022/07/19 01:07:44;;;;;;;4.70;3.08;;;16.50;99.90;;;;;;6241720;22;20015;-79
2022/07/19 01:10:12;;;;;;;4.25;3.50;;;16.40;99.90;;;;;;6266921;22;20100;-79
2022/07/19 01:12:39;;;;;;;5.45;3.40;;;16.40;99.90;;;;;;6241220;22;20106;-79
2022/07/19 01:15:16;;;;;;;3.67;3.20;;;16.30;99.90;;;;;;6267413;22;20016;-79
2022/07/19 01:17:42;;;;;;;10.98;3.08;;;16.30;99.90;;;;;;6266178;22;20012;-79
2022/07/19 01:20:09;;;;;;;6.03;3.70;;;16.30;99.90;;;;;;6267989;22;20527;-79
2022/07/19 01:22:34;;;;;;;4.82;3.70;;;16.30;99.90;;;;;;6240424;22;20054;-79
2022/07/19 01:25:00;;;;;;;7.43;3.30;;;16.20;99.90;;;;;;6267975;22;20016;-79
2022/07/19 01:27:26;;;;;;;7.38;4.07;;;16.20;99.90;;;;;;6216198;22;20489;-79
2022/07/19 01:29:52;;;;;;;4.00;3.60;;;16.20;99.90;;;;;;6241117;22;20023;-79
2022/07/19 01:32:17;;;;;;;4.13;3.42;;;16.10;99.90;;;;;;6267209;22;20020;-79
2022/07/19 01:34:43;;;;;;;3.55;3.25;;;16.10;99.90;;;;;;6268094;22;20047;-79
2022/07/19 01:37:09;;;;;;;7.70;3.80;;;16.10;99.90;;;;;;6269963;22;20058;-79
2022/07/19 01:39:34;;;;;;;6.75;3.83;;;16.10;99.90;;;;;;6242407;22;20080;-79
2022/07/19 01:42:00;;;;;;;5.00;3.58;;;16.10;99.90;;;;;;6244427;22;20019;-79
2022/07/19 01:44:26;;;;;;;9.55;3.50;;;16.10;99.90;;;;;;6268560;22;20011;-79
2022/07/19 01:46:51;;;;;;;5.22;3.38;;;16.10;99.90;;;;;;6217960;22;20389;-79
2022/07/19 01:49:17;;;;;;;8.50;3.47;;;16.10;99.90;;;;;;6243564;22;20051;-79
2022/07/19 01:51:43;;;;;;;3.45;3.15;;;16.00;99.90;;;;;;6268038;22;20019;-79
2022/07/19 01:54:08;;;;;;;5.40;3.47;;;16.00;99.90;;;;;;6270219;22;20821;-79
2022/07/19 01:56:34;;;;;;;4.57;3.13;;;16.00;99.90;;;;;;6241826;22;20046;-79
2022/07/19 01:59:00;;;;;;;4.80;3.05;;;16.00;99.90;;;;;;6269951;22;20023;-79
2022/07/19 02:01:25;;;;;;;4.97;3.50;;;16.00;99.90;;;;;;6216997;22;20027;-79
2022/07/19 02:03:51;;;;;;;7.65;3.70;;;16.00;99.90;;;;;;6269765;22;20347;-79
2022/07/19 02:06:17;;;;;;;4.28;3.22;;;16.00;99.90;;;;;;6242886;22;20024;-79
2022/07/19 02:08:42;;;;;;;3.20;2.80;;;16.00;99.90;;;;;;6242809;22;20442;-79
2022/07/19 02:13:52;;;;;;;3.95;3.05;;;15.90;99.90;;;;;;6268008;22;20016;-79
2022/07/19 02:16:18;;;;;;;3.85;3.25;;;15.80;99.90;;;;;;6243417;22;20051;-79
2022/07/19 02:18:43;;;;;;;5.22;3.53;;;15.80;99.90;;;;;;6242482;22;20015;-79
2022/07/19 02:21:09;;;;;;;6.43;3.53;;;15.80;99.90;;;;;;6244151;22;20016;-79
2022/07/19 02:23:35;;;;;;;4.45;3.13;;;15.70;99.90;;;;;;6268336;22;20026;-79
2022/07/19 02:26:01;;;;;;;5.15;3.00;;;15.70;99.90;;;;;;6243179;22;20536;-79
2022/07/19 02:28:26;;;;;;;5.93;3.20;;;15.70;99.90;;;;;;6268304;22;20019;-79
2022/07/19 02:30:52;;;;;;;3.60;3.30;;;15.70;99.90;;;;;;6267584;22;20023;-79
2022/07/19 02:33:18;;;;;;;3.92;3.08;;;15.70;99.90;;;;;;6243542;22;20015;-79
2022/07/19 02:35:43;;;;;;;5.93;3.50;;;15.70;99.90;;;;;;6242292;22;20022;-79
2022/07/19 02:38:09;;;;;;;3.90;3.42;;;15.70;99.90;;;;;;6218322;22;20016;-79
2022/07/19 02:40:35;;;;;;;4.97;3.92;;;15.70;99.90;;;;;;6267228;22;20449;-79
2022/07/19 02:43:00;;;;;;;2.85;2.72;;;15.70;99.90;;;;;;6269168;22;20464;-79
2022/07/19 02:45:26;;;;;;;6.70;4.20;;;15.70;99.90;;;;;;6242255;22;20016;-78
2022/07/19 02:47:52;;;;;;;8.63;3.75;;;15.80;99.90;;;;;;6267840;22;20057;-78
2022/07/19 02:50:18;;;;;;;5.90;3.38;;;15.80;99.90;;;;;;6242512;22;20069;-78
2022/07/19 02:52:43;;;;;;;4.03;3.42;;;15.80;99.90;;;;;;6216518;22;20420;-79
2022/07/19 02:55:09;;;;;;;6.97;4.70;;;15.80;99.90;;;;;;6269203;22;20126;-78
2022/07/19 02:57:35;;;;;;;7.03;4.82;;;15.80;99.90;;;;;;6215947;22;20106;-78
2022/07/19 03:00:02;;;;;;;7.43;4.90;;;15.80;99.90;;;;;;6268797;22;20019;-79
2022/07/19 03:02:28;;;;;;;6.18;3.80;;;15.90;99.90;;;;;;6267595;22;20017;-79
2022/07/19 03:04:54;;;;;;;7.10;4.18;;;15.90;99.90;;;;;;6242511;22;20043;-79
2022/07/19 03:07:19;;;;;;;6.03;3.92;;;15.90;99.90;;;;;;6268728;22;20015;-78
2022/07/19 03:09:47;;;;;;;4.88;3.38;;;15.90;99.90;;;;;;6267357;22;20027;-78
2022/07/19 03:12:12;;;;;;;9.43;3.88;;;15.90;99.90;;;;;;6243763;22;20038;-79
2022/07/19 03:14:38;;;;;;;5.00;4.10;;;15.90;99.90;;;;;;6266953;22;20446;-79
2022/07/19 03:17:04;;;;;;;4.10;3.67;;;15.90;99.90;;;;;;6218232;22;20015;-78
2022/07/19 03:19:30;;;;;;;7.55;3.92;;;15.90;99.90;;;;;;6240961;22;20020;-79
2022/07/19 03:21:55;;;;;;;6.75;3.75;;;15.80;99.90;;;;;;6243496;22;20019;-79
2022/07/19 03:24:21;;;;;;;5.57;3.88;;;15.80;99.90;;;;;;6268354;22;20051;-79
2022/07/19 03:26:47;;;;;;;5.55;3.78;;;15.80;99.90;;;;;;6242396;22;20020;-79
2022/07/19 03:29:13;;;;;;;7.70;3.85;;;15.80;99.90;;;;;;6268635;22;20326;-79
2022/07/19 03:31:38;;;;;;;7.72;4.78;;;15.80;99.90;;;;;;6215466;22;20023;-79
2022/07/19 03:34:04;;;;;;;5.20;3.67;;;15.80;99.90;;;;;;6243910;22;20074;-79
2022/07/19 03:36:30;;;;;;;5.28;4.10;;;15.90;99.90;;;;;;6240775;22;20016;-79
2022/07/19 03:38:56;;;;;;;6.75;4.70;;;15.80;99.90;;;;;;6268660;22;20020;-78
2022/07/19 03:41:22;;;;;;;7.47;4.68;;;15.90;99.90;;;;;;6241981;22;20020;-79
2022/07/19 03:43:47;;;;;;;7.35;5.00;;;15.90;99.90;;;;;;6242623;22;20019;-78
2022/07/19 03:46:13;;;;;;;7.82;4.63;;;15.90;99.90;;;;;;6268793;22;20331;-78
2022/07/19 03:48:39;;;;;;;10.95;5.50;;;15.90;99.90;;;;;;6241055;22;20031;-78
2022/07/19 03:51:05;;;;;;;6.38;5.28;;;15.90;99.90;;;;;;6243201;22;20022;-78
2022/07/19 03:53:31;;;;;;;5.70;5.07;;;15.90;99.90;;;;;;6266466;22;20099;-78
2022/07/19 03:55:57;;;;;;;7.70;3.95;;;15.90;99.90;;;;;;6268604;22;20058;-78
2022/07/19 03:58:22;;;;;;;7.30;4.50;;;15.90;99.90;;;;;;6266289;22;20027;-78
2022/07/19 04:00:48;;;;;;;5.38;4.40;;;15.90;99.90;;;;;;6242940;22;20311;-78
2022/07/19 04:03:14;;;;;;;4.53;4.13;;;15.80;99.90;;;;;;6268223;22;20039;-78
2022/07/19 04:05:39;;;;;;;7.40;4.10;;;15.80;99.90;;;;;;6241197;22;20092;-78
2022/07/19 04:08:05;;;;;;;4.88;4.38;;;15.90;99.90;;;;;;6243044;22;20023;-78
2022/07/19 04:10:31;;;;;;;6.40;4.25;;;15.90;99.90;;;;;;6265933;22;20093;-78
2022/07/19 04:12:57;;;;;;;6.63;5.03;;;15.90;99.90;;;;;;6243531;22;20015;-78
2022/07/19 04:15:22;;;;;;;12.88;4.22;;;15.90;99.90;;;;;;6240598;22;20023;-78
2022/07/19 04:17:48;;;;;;;9.18;4.55;;;16.00;99.90;;;;;;6242990;22;20038;-78
2022/07/19 04:20:14;;;;;;;4.45;3.88;;;16.00;99.90;;;;;;6241735;22;20384;-78
2022/07/19 04:22:39;;;;;;;4.55;3.88;;;16.10;99.90;;;;;;6241726;22;20023;-78
2022/07/19 04:25:06;;;;;;;10.95;4.43;;;16.10;99.90;;;;;;6242719;22;20035;-78
2022/07/19 04:27:32;;;;;;;11.93;4.55;;;16.20;99.90;;;;;;6215648;22;20090;-78
2022/07/19 04:29:58;;;;;;;8.82;5.50;;;16.20;99.90;;;;;;6268244;22;20073;-78
2022/07/19 04:32:23;;;;;;;5.82;4.47;;;16.20;99.90;;;;;;6265996;22;20020;-78
2022/07/19 04:34:49;;;;;;;7.47;4.15;;;16.30;99.90;;;;;;6217432;22;20023;-78
2022/07/19 04:37:15;;;;;;;5.53;4.00;;;16.30;99.90;;;;;;6266716;22;20435;-78
2022/07/19 04:39:42;;;;;;;5.80;4.18;;;16.40;99.90;;;;;;6242159;22;20482;-78
2022/07/19 04:42:08;;;;;;;6.18;4.28;;;16.40;99.90;;;;;;6267709;22;20480;-77
2022/07/19 04:44:34;;;;;;;8.65;5.47;;;16.50;99.90;;;;;;6266549;22;20027;-77
2022/07/19 04:46:59;;;;;;;10.63;4.85;;;16.50;99.90;;;;;;6217013;22;20442;-77
2022/07/19 04:49:25;;;;;;;7.30;5.22;;;16.60;99.90;;;;;;6240327;22;20081;-77
2022/07/19 04:51:51;;;;;;;13.02;5.95;;;16.70;99.90;;;;;;6242424;22;20023;-77
2022/07/19 04:54:17;;;;;;;10.00;5.82;;;16.70;99.90;;;;;;6266388;22;20015;-77
2022/07/19 04:56:42;;;;;;;17.70;7.10;;;16.80;99.90;;;;;;6242042;22;20011;-78
2022/07/19 04:59:08;;;;;;;10.88;5.68;;;16.80;99.90;;;;;;6191141;22;20015;-77
2022/07/19 05:01:34;;;;;;;8.00;4.85;;;16.90;99.90;;;;;;6266733;22;20019;-77
2022/07/19 05:04:00;;;;;;;9.18;4.97;;;17.00;99.90;;;;;;6242380;22;20023;-77
2022/07/19 05:06:26;;;;;;;6.63;5.00;;;17.10;99.90;;;;;;6240933;22;20034;-77
2022/07/19 05:08:52;;;;;;;6.60;5.32;;;17.20;99.90;;;;;;6267350;22;20020;-77
2022/07/19 05:11:19;;;;;;;6.05;4.68;;;17.30;99.90;;;;;;6265909;22;20012;-77
2022/07/19 05:13:45;;;;;;;7.45;4.70;;;17.30;99.90;;;;;;6241895;22;20431;-78
2022/07/19 05:16:11;;;;;;;9.20;4.03;;;17.50;99.90;;;;;;6266064;22;20471;-78
2022/07/19 05:18:36;;;;;;;9.13;4.55;;;17.50;99.90;;;;;;6242217;22;20019;-78
2022/07/19 05:21:02;;;;;;;6.43;4.60;;;17.70;99.90;;;;;;6267127;22;20129;-78
2022/07/19 05:23:28;;;;;;;10.38;5.63;;;17.70;99.90;;;;;;6266264;22;20022;-78
2022/07/19 05:25:54;;;;;;;6.32;4.40;;;17.80;99.90;;;;;;6267755;22;20022;-78
2022/07/19 05:28:19;;;;;;;11.35;5.05;;;18.00;99.90;;;;;;6266168;22;20037;-78
2022/07/19 05:30:45;;;;;;;8.13;5.28;;;18.10;99.90;;;;;;6267256;22;20032;-78
2022/07/19 05:33:11;;;;;;;8.63;5.28;;;18.30;99.90;;;;;;6267794;22;20023;-77
2022/07/19 05:35:38;;;;;;;15.25;6.80;;;18.40;99.90;;;;;;6241799;22;20020;-78
2022/07/19 05:38:03;;;;;;;13.10;6.00;;;18.40;99.90;;;;;;6241095;22;20541;-78
2022/07/19 05:40:29;;;;;;;10.65;5.75;;;18.50;99.90;;;;;;6241285;22;20439;-78
2022/07/19 05:42:55;;;;;;;11.50;5.43;;;18.70;99.90;;;;;;6267733;22;20073;-78
2022/07/19 05:45:21;;;;;;;8.98;5.53;;;18.80;99.90;;;;;;6190587;22;20015;-78
2022/07/19 05:47:47;;;;;;;12.57;5.88;;;18.90;99.90;;;;;;6241736;22;20024;-77
2022/07/19 05:50:12;;;;;;;7.95;5.63;;;19.10;99.90;;;;;;6265924;22;20097;-78
2022/07/19 05:52:38;;;;;;;9.10;5.63;;;19.20;99.90;;;;;;6216918;22;20358;-78
2022/07/19 05:55:06;;;;;;;15.00;5.93;;;19.40;99.90;;;;;;6240959;22;20481;-78
2022/07/19 05:57:32;;;;;;;13.30;5.88;;;19.50;99.90;;;;;;6241629;22;20099;-77
2022/07/19 05:59:58;;;;;;;8.35;5.78;;;19.70;99.90;;;;;;6267231;22;20019;-78
2022/07/19 06:02:24;;;;;;;13.25;6.00;;;19.80;99.90;;;;;;6190423;22;20054;-78
2022/07/19 06:04:49;;;;;;;11.73;5.68;;;19.90;99.90;;;;;;6266935;22;20027;-78
2022/07/19 06:07:15;;;;;;;8.77;5.22;;;20.00;99.90;;;;;;6265446;22;20026;-78
2022/07/19 06:09:41;;;;;;;11.27;5.65;;;20.10;99.90;;;;;;6241207;22;20030;-77
2022/07/19 06:12:06;;;;;;;15.65;5.80;;;20.20;99.90;;;;;;6240437;22;20016;-78
2022/07/19 06:14:32;;;;;;;10.77;6.15;;;20.30;99.90;;;;;;6267041;22;20447;-77
2022/07/19 06:16:59;;;;;;;7.63;5.15;;;20.40;99.90;;;;;;6240635;22;20012;-77
2022/07/19 06:19:26;;;;;;;15.73;7.13;;;20.50;99.90;;;;;;6217259;22;20031;-77
2022/07/19 06:21:52;;;;;;;15.20;5.53;;;20.60;99.90;;;;;;6243239;22;20346;-76
2022/07/19 06:24:18;;;;;;;14.23;5.70;;;20.60;99.90;;;;;;6242146;22;20022;-76
2022/07/19 06:26:44;;;;;;;8.65;5.95;;;20.70;99.90;;;;;;6268640;22;20023;-78
2022/07/19 06:29:10;;;;;;;10.27;6.25;;;20.80;99.90;;;;;;6241530;22;20447;-75
2022/07/19 06:31:35;;;;;;;9.52;6.25;;;20.90;99.90;;;;;;6243170;22;20077;-76
2022/07/19 06:34:01;;;;;;;8.10;5.82;;;20.90;97.70;;;;;;6242069;22;20020;-76
2022/07/19 06:36:27;;;;;;;12.93;5.88;;;21.00;97.10;;;;;;6269405;22;20012;-76
2022/07/19 06:38:53;;;;;;;14.15;5.97;;;21.10;99.80;;;;;;6242487;22;20085;-77
2022/07/19 06:41:19;;;;;;;8.90;5.95;;;21.30;99.90;;;;;;6242656;22;20507;-76
2022/07/19 06:43:44;;;;;;;9.60;5.93;;;21.40;99.90;;;;;;6243433;22;20047;-76
2022/07/19 06:46:10;;;;;;;12.57;6.25;;;21.60;97.90;;;;;;6267320;22;20020;-75
2022/07/19 06:48:36;;;;;;;11.02;6.55;;;21.60;96.00;;;;;;6268923;22;20114;-76
2022/07/19 06:51:02;;;;;;;7.93;5.63;;;21.80;96.80;;;;;;6267398;22;20459;-76
2022/07/19 06:53:28;;;;;;;7.18;5.28;;;21.90;96.10;;;;;;6270531;22;20435;-76
2022/07/19 06:55:54;;;;;;;11.23;5.45;;;22.00;98.10;;;;;;6266513;22;20461;-75
2022/07/19 06:58:19;;;;;;;9.50;5.82;;;22.10;99.00;;;;;;6242813;22;20523;-75
2022/07/19 07:00:48;;;;;;;11.93;6.10;;;22.30;95.60;;;;;;6267964;22;20469;-75
2022/07/19 07:03:15;;;;;;;15.65;6.22;;;22.40;94.00;;;;;;6267013;22;20073;-75
2022/07/19 07:05:41;;;;;;;6.82;5.38;;;22.60;94.30;;;;;;6268270;22;20020;-75
2022/07/19 07:08:06;;;;;;;9.23;5.63;;;22.80;95.10;;;;;;6267034;22;20019;-75
2022/07/19 07:10:32;;;;;;;11.52;4.95;;;23.00;93.60;;;;;;6269020;22;20099;-74
2022/07/19 07:12:58;;;;;;;7.85;5.53;;;23.20;94.20;;;;;;6241042;22;20458;-75
2022/07/19 07:15:23;;;;;;;12.55;5.13;;;23.30;88.30;;;;;;6268890;22;20023;-75
2022/07/19 07:17:49;;;;;;;13.30;6.35;;;23.50;90.30;;;;;;6242108;22;20479;-74
2022/07/19 07:20:15;;;;;;;10.05;5.57;;;23.70;87.40;;;;;;6269765;22;20012;-75
2022/07/19 07:22:40;;;;;;;12.80;5.10;;;23.90;83.90;;;;;;6267980;22;20090;-74
2022/07/19 07:25:07;;;;;;;6.47;4.32;;;24.10;83.30;;;;;;6266822;22;20394;-75
2022/07/19 07:27:33;;;;;;;17.60;5.45;;;24.40;85.30;;;;;;6242775;22;20111;-74
2022/07/19 07:29:59;;;;;;;8.32;4.60;;;24.70;79.90;;;;;;6240331;22;20055;-74
2022/07/19 07:32:26;;;;;;;9.45;4.38;;;24.90;75.80;;;;;;6268704;22;20347;-74
2022/07/19 07:34:53;;;;;;;13.73;4.80;;;25.20;81.10;;;;;;6266858;22;20022;-75
2022/07/19 07:37:19;;;;;;;12.65;5.10;;;25.50;75.50;;;;;;6242469;22;20470;-75
2022/07/19 07:39:44;;;;;;;12.60;5.22;;;25.80;66.00;;;;;;6267716;22;20026;-75
2022/07/19 07:42:10;;;;;;;7.50;4.45;;;26.10;67.50;;;;;;6266247;22;20023;-74
2022/07/19 07:44:35;;;;;;;14.65;4.10;;;26.30;59.40;;;;;;6267978;22;20030;-75
2022/07/19 07:47:01;;;;;;;8.48;4.13;;;26.60;60.40;;;;;;6265720;22;20024;-75
2022/07/19 07:49:27;;;;;;;8.27;3.95;;;26.90;51.90;;;;;;6242505;22;20316;-75
2022/07/19 07:51:53;;;;;;;10.65;3.92;;;27.30;53.10;;;;;;6265839;22;20019;-74
2022/07/19 07:54:19;;;;;;;6.25;3.50;;;27.60;52.90;;;;;;6266652;22;20386;-73
2022/07/19 07:56:45;;;;;;;4.38;3.08;;;28.00;36.70;;;;;;6267472;22;20016;-75
2022/07/19 07:59:16;;;;;;;3.58;2.90;;;28.20;24.40;;;;;;6266766;22;20077;-75
2022/07/19 08:01:44;;;;;;;6.35;3.28;;;28.40;15.00;;;;;;6267569;22;20020;-74
2022/07/19 08:04:10;;;;;;;5.88;2.70;;;28.60;12.90;;;;;;6266236;22;20070;-75
2022/07/19 08:06:36;;;;;;;8.50;2.85;;;28.90;8.60;;;;;;6268357;22;20024;-75
2022/07/19 08:09:04;;;;;;;17.20;2.75;;;28.90;3.60;;;;;;6265839;22;20035;-75
2022/07/19 08:11:30;;;;;;;4.47;3.22;;;29.10;3.40;;;;;;6268066;22;20485;-71
2022/07/19 08:13:56;;;;;;;7.85;2.60;;;29.30;1.00;;;;;;6241015;22;20091;-70
2022/07/19 08:16:21;;;;;;;6.85;2.70;;;29.50;1.00;;;;;;6267094;22;20047;-71
2022/07/19 08:18:47;;;;;;;3.97;2.22;;;29.70;1.00;;;;;;6266119;22;20027;-71
2022/07/19 08:21:13;;;;;;;4.43;2.75;;;29.90;1.00;;;;;;6266388;22;20253;-71
2022/07/19 08:23:41;;;;;;;8.40;2.22;;;30.20;1.00;;;;;;6216851;22;20450;-71
2022/07/19 08:26:08;;;;;;;6.68;2.35;;;30.50;1.00;;;;;;6265295;22;20490;-71
2022/07/19 08:28:34;;;;;;;6.68;2.05;;;30.50;1.00;;;;;;6267348;22;20024;-72
2022/07/19 08:30:59;;;;;;;3.08;2.20;;;30.50;1.00;;;;;;6213946;22;20375;-71
2022/07/19 08:33:25;;;;;;;3.65;2.25;;;30.70;1.00;;;;;;6266787;22;20019;-72
2022/07/19 08:35:51;;;;;;;6.55;2.17;;;31.00;1.00;;;;;;6265912;22;20020;-72
2022/07/19 08:38:16;;;;;;;10.25;2.20;;;31.20;1.00;;;;;;6265802;22;20019;-72
2022/07/19 08:40:43;;;;;;;8.10;2.40;;;31.40;1.00;;;;;;6267694;22;20020;-72
2022/07/19 08:43:10;;;;;;;4.03;2.10;;;31.50;1.00;;;;;;6265194;22;20016;-72
2022/07/19 08:45:37;;;;;;;3.60;2.10;;;31.70;1.00;;;;;;6267464;22;20024;-71
2022/07/19 08:48:05;;;;;;;5.80;1.98;;;31.80;1.00;;;;;;6265301;22;20020;-71
2022/07/19 08:50:33;;;;;;;3.00;1.85;;;31.90;1.00;;;;;;6267872;22;20034;-72
2022/07/19 08:52:59;;;;;;;3.97;2.20;;;32.10;1.00;;;;;;6266171;22;20019;-71
2022/07/19 08:55:25;;;;;;;3.40;1.90;;;32.30;1.00;;;;;;6265610;22;20030;-71
2022/07/19 08:57:57;;;;;;;7.05;2.03;;;32.30;1.00;;;;;;6268108;22;20027;-71
2022/07/19 09:00:25;;;;;;;2.05;1.80;;;32.30;1.00;;;;;;6268088;22;20022;-71
2022/07/19 09:03:06;;;;;;;5.00;2.10;;;32.50;1.00;;;;;;6267824;22;20008;-72
2022/07/19 09:05:35;;;;;;;4.93;1.77;;;32.50;1.00;;;;;;6265883;22;20024;-71
2022/07/19 09:08:05;;;;;;;3.95;2.47;;;32.50;1.00;;;;;;6266224;22;20355;-71
2022/07/19 09:10:33;;;;;;;4.45;1.83;;;32.50;1.00;;;;;;6267005;22;20098;-72
2022/07/19 09:13:14;;;;;;;1.85;1.75;;;32.50;1.00;;;;;;6263165;22;20008;-72
2022/07/19 09:15:42;;;;;;;2.88;1.60;;;32.60;1.00;;;;;;6267120;22;20540;-72
2022/07/19 09:18:21;;;;;;;6.20;1.80;;;32.60;1.00;;;;;;6265638;22;20019;-71
2022/07/19 09:20:50;;;;;;;5.00;1.70;;;32.60;1.00;;;;;;6267017;22;20024;-72
2022/07/19 09:23:16;;;;;;;6.72;2.13;;;32.60;1.00;;;;;;6240346;22;20016;-71
2022/07/19 09:25:48;;;;;;;3.25;1.90;;;32.80;1.00;;;;;;6240291;22;20418;-71
2022/07/19 09:28:16;;;;;;;2.28;1.75;;;32.90;1.00;;;;;;6267248;22;20020;-71
2022/07/19 09:30:44;;;;;;;4.65;1.85;;;33.10;1.00;;;;;;6265860;22;20034;-70
2022/07/19 09:33:14;;;;;;;7.97;1.90;;;33.30;1.00;;;;;;6267251;22;20035;-72
2022/07/19 09:35:45;;;;;;;8.32;1.77;;;33.40;1.00;;;;;;6266503;22;20022;-72
2022/07/19 09:38:27;;;;;;;2.00;1.85;;;33.50;1.00;;;;;;6266781;22;20062;-72
2022/07/19 09:41:08;;;;;;;5.45;1.80;;;33.40;1.00;;;;;;6268697;22;20055;-71
2022/07/19 09:43:55;;;;;;;5.70;1.77;;;33.30;1.00;;;;;;6267579;22;20018;-72
2022/07/19 09:46:49;;;;;;;1.65;1.50;;;33.40;1.00;;;;;;6266720;22;20027;-72
2022/07/19 09:49:18;;;;;;;2.95;1.50;;;33.50;1.00;;;;;;6267962;22;20055;-71
2022/07/19 09:51:49;;;;;;;10.23;1.70;;;33.70;1.00;;;;;;6265143;22;20833;-72
2022/07/19 09:54:17;;;;;;;3.55;1.83;;;33.70;1.00;;;;;;6238583;22;20026;-72
2022/07/19 09:56:44;;;;;;;1.53;1.43;;;33.80;1.00;;;;;;6267704;22;20016;-72
2022/07/19 09:59:10;;;;;;;3.63;1.52;;;34.00;1.00;;;;;;6268854;22;20024;-72
2022/07/19 10:01:37;;;;;;;3.22;1.65;;;34.00;1.00;;;;;;6268378;22;20026;-71
2022/07/19 10:04:16;;;;;;;8.35;2.75;;;34.00;1.00;;;;;;6268471;22;20862;-71
2022/07/19 10:06:43;;;;;;;7.18;1.58;;;33.90;1.00;;;;;;6269514;22;20500;-73
2022/07/19 10:09:11;;;;;;;1.90;1.30;;;33.90;1.00;;;;;;6266973;22;20023;-72
2022/07/19 10:11:38;;;;;;;2.33;1.58;;;34.00;1.00;;;;;;6269531;22;20095;-72
2022/07/19 10:14:04;;;;;;;4.07;1.60;;;33.90;1.00;;;;;;6267123;22;20015;-73
2022/07/19 10:16:38;;;;;;;3.50;1.48;;;34.00;1.00;;;;;;6269552;22;20101;-72
2022/07/19 10:19:34;;;;;;;1.75;1.45;;;34.00;1.00;;;;;;6267982;22;20076;-72
2022/07/19 10:22:01;;;;;;;7.03;1.77;;;34.10;1.00;;;;;;6264439;22;20427;-72
2022/07/19 10:24:50;;;;;;;4.55;1.35;;;34.10;1.00;;;;;;6267890;22;20103;-72
2022/07/19 10:27:25;;;;;;;2.70;1.30;;;34.10;1.00;;;;;;6264599;22;20055;-72
2022/07/19 10:29:51;;;;;;;5.82;1.30;;;34.10;1.00;;;;;;6266255;22;20023;-73
2022/07/19 10:32:17;;;;;;;5.45;1.83;;;34.10;1.00;;;;;;6265726;22;20117;-73
2022/07/19 10:34:46;;;;;;;3.17;1.52;;;34.20;1.00;;;;;;6239429;22;20347;-72
2022/07/19 10:37:13;;;;;;;3.75;1.70;;;34.20;1.00;;;;;;6266259;22;20050;-72
2022/07/19 10:39:39;;;;;;;6.57;1.70;;;34.20;1.00;;;;;;6264341;22;20365;-72
2022/07/19 10:42:19;;;;;;;1.85;1.63;;;34.30;1.00;;;;;;6266426;22;20019;-72
2022/07/19 10:44:54;;;;;;;7.95;1.30;;;34.30;1.00;;;;;;6239548;22;20019;-72
2022/07/19 10:47:40;;;;;;;2.03;1.52;;;34.30;1.00;;;;;;6264563;22;20015;-73
2022/07/19 10:50:09;;;;;;;2.05;1.33;;;34.20;1.00;;;;;;6205581;22;20441;-72
2022/07/19 10:52:36;;;;;;;2.75;1.45;;;34.30;1.00;;;;;;6241255;22;20019;-72
2022/07/19 10:55:17;;;;;;;9.38;1.70;;;34.40;1.00;;;;;;6216357;22;20142;-73
2022/07/19 10:57:45;;;;;;;2.08;1.67;;;34.40;1.00;;;;;;6242207;22;20396;-72
2022/07/19 11:00:20;;;;;;;1.57;1.47;;;34.40;1.00;;;;;;6241675;22;20027;-72
2022/07/19 11:02:48;;;;;;;3.95;1.35;;;34.30;1.00;;;;;;6217888;22;20027;-73
2022/07/19 11:05:28;;;;;;;3.30;1.02;;;34.20;1.00;;;;;;6215335;22;20020;-73
2022/07/19 11:07:57;;;;;;;5.57;1.23;;;34.20;1.00;;;;;;6243381;22;20055;-72
2022/07/19 11:10:28;;;;;;;1.42;1.27;;;34.10;1.00;;;;;;6241356;22;20167;-72
2022/07/19 11:12:55;;;;;;;6.80;1.25;;;34.10;1.00;;;;;;6217345;22;20016;-72
2022/07/19 11:15:22;;;;;;;3.65;1.17;;;34.10;1.00;;;;;;6216404;22;20016;-72
2022/07/19 11:17:51;;;;;;;3.25;1.45;;;34.00;1.00;;;;;;6237793;22;20455;-73
2022/07/19 11:20:19;;;;;;;5.63;1.30;;;34.10;1.00;;;;;;6241562;22;20070;-73
2022/07/19 11:22:47;;;;;;;7.05;1.52;;;34.10;1.00;;;;;;6241415;22;20023;-72
2022/07/19 11:25:13;;;;;;;;;;;34.20;1.00;;;;;;6242741;22;20512;-72
2022/07/19 11:27:44;;;;;;;3.15;1.30;;;34.20;1.00;;;;;;6215635;22;19922;-72
2022/07/19 11:30:12;;;;;;;2.80;1.05;;;34.10;1.00;;;;;;6241796;22;20055;-72
2022/07/19 11:32:38;;;;;;;3.15;1.30;;;34.10;1.00;;;;;;6217005;22;20421;-72
2022/07/19 11:35:06;;;;;;;6.80;1.15;;;34.00;1.00;;;;;;6190719;22;20024;-72
2022/07/19 11:37:34;;;;;;;1.48;1.05;;;34.00;1.00;;;;;;6242746;22;20098;-72
2022/07/19 11:40:00;;;;;;;;;;;33.90;1.00;;;;;;6241038;22;20457;-72
2022/07/19 11:42:33;;;;;;;1.83;1.27;;;34.00;1.00;;;;;;6217283;22;19949;-73
2022/07/19 11:45:07;;;;;;;6.15;1.50;;;34.00;1.00;;;;;;6216317;22;20066;-73
2022/07/19 11:47:36;;;;;;;2.28;1.10;;;33.90;1.00;;;;;;6264181;22;20051;-72
2022/07/19 11:50:06;;;;;;;2.58;1.10;;;33.80;1.00;;;;;;6267523;22;20028;-73
2022/07/19 11:53:02;;;;;;;4.40;0.90;;;33.80;1.00;;;;;;6266002;22;20034;-71
2022/07/19 11:55:36;;;;;;;1.73;1.10;;;33.80;1.00;;;;;;6242909;22;20047;-73
2022/07/19 11:58:10;;;;;;;5.80;1.02;;;33.80;1.00;;;;;;6266731;22;20351;-72
2022/07/19 12:00:36;;;;;;;1.77;1.15;;;33.80;1.00;;;;;;6267427;22;20019;-73
2022/07/19 12:03:08;;;;;;;2.08;1.33;;;33.80;1.00;;;;;;6266598;22;20447;-72
2022/07/19 12:05:37;;;;;;;1.52;1.02;;;33.80;1.00;;;;;;6267934;22;20368;-72
2022/07/19 12:08:06;;;;;;;1.50;1.05;;;33.90;1.00;;;;;;6267155;22;20394;-72
2022/07/19 12:10:38;;;;;;;2.53;1.00;;;33.90;1.00;;;;;;6265395;22;20051;-72
2022/07/19 12:13:07;;;;;;;2.10;0.93;;;34.00;1.00;;;;;;6241724;22;20081;-73
2022/07/19 12:15:51;;;;;;;;;;;34.10;1.00;;;;;;6242223;22;20015;-72
2022/07/19 12:18:19;;;;;;;7.30;1.02;;;34.10;1.00;;;;;;6265604;22;20401;-73
2022/07/19 12:21:14;;;;;;;1.05;0.98;;;34.10;1.00;;;;;;6267898;22;20030;-72
2022/07/19 12:23:40;;;;;;;3.83;1.52;;;34.10;1.00;;;;;;6266222;22;20033;-72
2022/07/19 12:26:07;;;;;;;1.80;0.70;;;34.10;1.00;;;;;;6266796;22;20027;-72
2022/07/19 12:28:32;;;;;;;3.63;1.23;;;34.00;1.00;;;;;;6267273;22;20018;-71
2022/07/19 12:31:06;;;;;;;2.38;1.08;;;34.10;1.00;;;;;;6267000;22;20095;-73
2022/07/19 12:33:32;;;;;;;4.95;1.35;;;34.10;1.00;;;;;;6268443;22;20020;-73
2022/07/19 12:35:58;;;;;;;4.63;1.20;;;34.10;1.00;;;;;;6266098;22;20022;-72
2022/07/19 12:38:31;;;;;;;2.65;1.15;;;34.20;1.00;;;;;;6267330;22;20028;-72
2022/07/19 12:41:07;;;;;;;2.90;1.15;;;34.20;1.00;;;;;;6266574;22;20023;-72
2022/07/19 12:43:34;;;;;;;6.30;1.25;;;34.20;1.00;;;;;;6242006;22;20031;-72
2022/07/19 12:46:04;;;;;;;3.28;1.33;;;34.20;1.00;;;;;;6267555;22;20024;-72
2022/07/19 12:48:31;;;;;;;4.78;1.30;;;34.20;1.00;;;;;;6266163;22;20086;-73
2022/07/19 12:50:57;;;;;;;1.65;1.13;;;34.20;1.00;;;;;;6267832;22;20461;-72
2022/07/19 12:53:23;;;;;;;2.95;1.08;;;34.10;1.00;;;;;;6265711;22;20034;-72
2022/07/19 12:55:49;;;;;;;1.50;1.10;;;34.10;1.00;;;;;;6267718;22;20095;-73